createdAt,value
2018-04-06T00:00:25.111Z,49.50
2018-04-06T00:02:53.980Z,49.50
2018-04-06T00:05:22.995Z,49.20
2018-04-06T00:07:51.419Z,49.30
2018-04-06T00:10:20.287Z,49.70
2018-04-06T00:12:48.547Z,49.60
2018-04-06T00:15:16.817Z,49.50
2018-04-06T00:17:45.895Z,49.60
2018-04-06T00:20:14.173Z,49.60
2018-04-06T00:22:42.393Z,49.60
2018-04-06T00:25:11.098Z,49.70
2018-04-06T00:27:39.411Z,49.80
2018-04-06T00:30:07.706Z,50.10
2018-04-06T00:32:35.953Z,50.00
2018-04-06T00:35:04.190Z,49.90
2018-04-06T00:37:33.235Z,50.40
2018-04-06T00:40:07.174Z,50.30
2018-04-06T00:42:39.160Z,50.60
2018-04-06T00:45:07.894Z,51.20
2018-04-06T00:47:36.166Z,51.00
2018-04-06T00:50:05.162Z,50.80
2018-04-06T00:52:34.311Z,50.50
2018-04-06T00:55:03.383Z,51.50
2018-04-06T00:57:31.618Z,50.80
2018-04-06T01:00:00.622Z,50.70
2018-04-06T01:02:28.878Z,50.80
2018-04-06T01:04:58.078Z,50.60
2018-04-06T01:07:27.121Z,50.30
2018-04-06T01:09:55.346Z,50.60
2018-04-06T01:12:23.601Z,50.80
2018-04-06T01:14:51.874Z,51.70
2018-04-06T01:17:20.110Z,50.80
2018-04-06T01:19:50.690Z,51.10
2018-04-06T01:22:18.960Z,50.70
2018-04-06T01:24:47.211Z,50.80
2018-04-06T01:27:15.490Z,51.00
2018-04-06T01:29:44.507Z,51.10
2018-04-06T01:32:12.789Z,51.10
2018-04-06T01:34:41.054Z,51.00
2018-04-06T01:37:09.321Z,50.80
2018-04-06T01:39:38.372Z,51.20
2018-04-06T01:42:07.585Z,51.00
2018-04-06T01:44:35.867Z,51.10
2018-04-06T01:47:04.107Z,51.10
2018-04-06T01:49:32.448Z,51.10
2018-04-06T01:52:00.927Z,50.90
2018-04-06T01:54:29.137Z,51.10
2018-04-06T01:56:57.418Z,51.10
2018-04-06T01:59:26.891Z,51.20
2018-04-06T02:01:55.148Z,51.10
2018-04-06T02:04:23.414Z,50.90
2018-04-06T02:06:52.500Z,51.20
2018-04-06T02:09:28.474Z,50.90
2018-04-06T02:11:56.729Z,51.00
2018-04-06T02:14:25.737Z,50.70
2018-04-06T02:16:54.054Z,50.80
2018-04-06T02:19:23.883Z,51.00
2018-04-06T02:21:52.329Z,50.80
2018-04-06T02:24:21.176Z,51.10
2018-04-06T02:26:50.162Z,51.30
2018-04-06T02:29:19.924Z,51.40
2018-04-06T02:31:48.194Z,51.20
2018-04-06T02:34:16.562Z,51.50
2018-04-06T02:36:45.674Z,51.40
2018-04-06T02:39:14.710Z,51.20
2018-04-06T02:41:42.962Z,51.10
2018-04-06T02:44:11.220Z,51.40
2018-04-06T02:46:40.252Z,51.30
2018-04-06T02:49:08.522Z,51.60
2018-04-06T02:51:36.799Z,51.30
2018-04-06T02:54:05.028Z,51.40
2018-04-06T02:56:33.328Z,51.40
2018-04-06T02:59:01.593Z,51.50
2018-04-06T03:01:29.841Z,50.80
2018-04-06T03:03:58.268Z,51.50
2018-04-06T03:06:27.497Z,51.30
2018-04-06T03:08:56.518Z,51.40
2018-04-06T03:11:24.789Z,51.30
2018-04-06T03:13:53.030Z,51.20
2018-04-06T03:16:22.051Z,51.60
2018-04-06T03:18:50.911Z,51.10
2018-04-06T03:21:19.154Z,51.20
2018-04-06T03:23:47.409Z,51.40
2018-04-06T03:26:15.746Z,51.20
2018-04-06T03:28:44.137Z,51.20
2018-04-06T03:31:12.355Z,51.10
2018-04-06T03:33:40.699Z,51.00
2018-04-06T03:36:08.899Z,51.30
2018-04-06T03:38:37.940Z,52.20
2018-04-06T03:41:06.254Z,51.70
2018-04-06T03:43:34.476Z,51.70
2018-04-06T03:46:03.737Z,51.30
2018-04-06T03:48:32.306Z,51.30
2018-04-06T03:51:00.605Z,51.00
2018-04-06T03:53:28.988Z,51.80
2018-04-06T03:55:57.203Z,51.30
2018-04-06T03:58:25.560Z,51.50
2018-04-06T04:00:53.890Z,51.40
2018-04-06T04:03:22.141Z,51.30
2018-04-06T04:05:51.313Z,51.40
2018-04-06T04:08:19.521Z,51.30
2018-04-06T04:10:47.826Z,51.40
2018-04-06T04:13:16.185Z,51.30
2018-04-06T04:15:45.056Z,51.20
2018-04-06T04:18:13.327Z,51.20
2018-04-06T04:20:41.573Z,51.20
2018-04-06T04:23:09.850Z,51.30
2018-04-06T04:25:38.246Z,51.60
2018-04-06T04:28:06.575Z,51.50
2018-04-06T04:30:36.414Z,51.70
2018-04-06T04:33:04.667Z,51.40
2018-04-06T04:35:32.978Z,51.40
2018-04-06T04:38:02.535Z,51.10
2018-04-06T04:40:32.304Z,51.30
2018-04-06T04:43:00.609Z,51.20
2018-04-06T04:45:28.845Z,51.40
2018-04-06T04:47:57.918Z,51.20
2018-04-06T04:50:26.307Z,51.20
2018-04-06T04:52:54.566Z,51.50
2018-04-06T04:55:22.766Z,51.40
2018-04-06T04:57:51.017Z,51.50
2018-04-06T05:00:19.249Z,51.40
2018-04-06T05:02:49.065Z,51.50
2018-04-06T05:05:18.114Z,51.80
2018-04-06T05:07:46.361Z,51.80
2018-04-06T05:10:14.616Z,52.30
2018-04-06T05:12:43.642Z,51.40
2018-04-06T05:15:11.916Z,51.30
2018-04-06T05:17:40.211Z,51.70
2018-04-06T05:20:08.460Z,51.60
2018-04-06T05:22:37.284Z,51.70
2018-04-06T05:25:05.641Z,51.80
2018-04-06T05:27:34.670Z,51.80
2018-04-06T05:30:03.011Z,51.90
2018-04-06T05:32:32.009Z,52.20
2018-04-06T05:35:01.084Z,52.00
2018-04-06T05:37:29.333Z,52.10
2018-04-06T05:39:57.561Z,52.10
2018-04-06T05:42:26.589Z,52.20
2018-04-06T05:44:55.413Z,52.30
2018-04-06T05:47:23.684Z,52.10
2018-04-06T05:49:51.981Z,52.10
2018-04-06T05:52:20.533Z,52.10
2018-04-06T05:54:48.919Z,52.20
2018-04-06T05:57:17.163Z,52.30
2018-04-06T05:59:46.270Z,52.30
2018-04-06T06:02:15.297Z,52.60
2018-04-06T06:04:43.576Z,52.40
2018-04-06T06:07:14.953Z,52.30
2018-04-06T06:09:45.514Z,52.40
2018-04-06T06:12:13.765Z,52.40
2018-04-06T06:14:42.034Z,52.60
2018-04-06T06:17:10.286Z,52.60
2018-04-06T06:19:39.474Z,52.60
2018-04-06T06:22:08.601Z,52.50
2018-04-06T06:24:36.876Z,52.60
2018-04-06T06:27:06.035Z,52.70
2018-04-06T06:29:36.873Z,52.90
2018-04-06T06:32:05.872Z,53.00
2018-04-06T06:34:34.086Z,52.80
2018-04-06T06:37:02.339Z,53.00
2018-04-06T06:39:30.607Z,52.80
2018-04-06T06:41:58.849Z,52.60
2018-04-06T06:44:27.108Z,52.80
2018-04-06T06:46:56.130Z,52.80
2018-04-06T06:49:24.409Z,52.80
2018-04-06T06:51:52.735Z,52.90
2018-04-06T06:54:22.403Z,53.00
2018-04-06T06:56:51.141Z,52.70
2018-04-06T06:59:20.207Z,52.90
2018-04-06T07:01:49.477Z,52.70
2018-04-06T07:04:18.480Z,52.60
2018-04-06T07:06:48.433Z,52.50
2018-04-06T07:09:16.667Z,52.50
2018-04-06T07:11:44.977Z,52.40
2018-04-06T07:14:13.209Z,52.30
2018-04-06T07:16:43.235Z,51.90
2018-04-06T07:19:11.594Z,51.90
2018-04-06T07:21:39.879Z,51.80
2018-04-06T07:24:10.150Z,51.50
2018-04-06T07:26:38.400Z,51.10
2018-04-06T07:29:09.346Z,50.40
2018-04-06T07:31:38.386Z,50.40
2018-04-06T07:34:06.626Z,50.10
2018-04-06T07:36:35.655Z,49.80
2018-04-06T07:39:03.911Z,49.70
2018-04-06T07:41:32.937Z,49.30
2018-04-06T07:44:01.272Z,49.40
2018-04-06T07:46:30.665Z,49.00
2018-04-06T07:48:59.194Z,48.60
2018-04-06T07:51:27.535Z,48.60
2018-04-06T07:53:56.814Z,48.50
2018-04-06T07:56:25.058Z,48.00
2018-04-06T07:58:54.327Z,47.60
2018-04-06T08:01:22.603Z,47.30
2018-04-06T08:03:50.844Z,47.20
2018-04-06T08:06:19.082Z,46.90
2018-04-06T08:08:48.258Z,46.70
2018-04-06T08:11:16.493Z,46.60
2018-04-06T08:13:44.831Z,46.70
2018-04-06T08:16:13.054Z,46.20
2018-04-06T08:18:41.340Z,45.80
2018-04-06T08:21:09.653Z,45.60
2018-04-06T08:23:37.933Z,45.40
2018-04-06T08:26:06.198Z,45.30
2018-04-06T08:28:34.415Z,44.80
2018-04-06T08:31:02.906Z,44.40
2018-04-06T08:33:32.103Z,44.20
2018-04-06T08:36:00.512Z,43.10
2018-04-06T08:38:29.515Z,42.90
2018-04-06T08:40:57.792Z,42.80
2018-04-06T08:43:26.058Z,42.40
2018-04-06T08:45:55.092Z,42.60
2018-04-06T08:48:25.428Z,42.10
2018-04-06T08:50:53.745Z,41.70
2018-04-06T08:53:22.025Z,41.50
2018-04-06T08:55:51.782Z,41.30
2018-04-06T08:58:21.005Z,41.30
2018-04-06T09:00:50.705Z,41.00
2018-04-06T09:03:19.061Z,40.70
2018-04-06T09:05:47.327Z,40.60
2018-04-06T09:08:15.869Z,39.70
2018-04-06T09:10:44.184Z,39.30
2018-04-06T09:13:12.862Z,39.70
2018-04-06T09:15:41.980Z,39.50
2018-04-06T09:18:10.230Z,39.10
2018-04-06T09:20:38.511Z,38.30
2018-04-06T09:23:06.778Z,38.10
2018-04-06T09:25:35.015Z,37.70
2018-04-06T09:28:04.059Z,36.40
2018-04-06T09:30:32.283Z,36.20
2018-04-06T09:33:00.578Z,36.60
2018-04-06T09:35:29.732Z,36.20
2018-04-06T09:38:00.023Z,36.70
2018-04-06T09:40:28.287Z,36.30
2018-04-06T09:42:57.345Z,35.90
2018-04-06T09:45:25.617Z,35.70
2018-04-06T09:47:53.867Z,35.60
2018-04-06T09:50:22.126Z,35.60
2018-04-06T09:52:51.134Z,35.50
2018-04-06T09:55:19.393Z,35.60
2018-04-06T09:57:47.762Z,35.00
2018-04-06T10:00:21.817Z,33.90
2018-04-06T10:02:50.174Z,33.90
2018-04-06T10:05:18.437Z,33.80
2018-04-06T10:07:46.868Z,34.10
2018-04-06T10:10:16.033Z,33.70
2018-04-06T10:12:44.306Z,32.70
2018-04-06T10:15:12.558Z,32.10
2018-04-06T10:17:40.826Z,31.80
2018-04-06T10:20:12.989Z,31.90
2018-04-06T10:22:41.413Z,31.90
2018-04-06T10:25:10.620Z,32.10
2018-04-06T10:27:38.871Z,31.90
2018-04-06T10:30:07.150Z,31.70
2018-04-06T10:32:35.400Z,30.70
2018-04-06T10:35:04.399Z,30.30
2018-04-06T10:37:32.650Z,30.30
2018-04-06T10:40:00.894Z,30.50
2018-04-06T10:42:30.160Z,30.70
2018-04-06T10:44:58.407Z,30.30
2018-04-06T10:47:26.661Z,30.00
2018-04-06T10:49:54.932Z,29.90
2018-04-06T10:52:23.166Z,29.60
2018-04-06T10:54:51.674Z,28.90
2018-04-06T10:57:20.819Z,28.90
2018-04-06T10:59:49.108Z,28.70
2018-04-06T11:02:17.381Z,28.70
2018-04-06T11:04:45.742Z,28.80
2018-04-06T11:07:14.028Z,28.90
2018-04-06T11:09:42.357Z,28.90
2018-04-06T11:12:11.592Z,28.70
2018-04-06T11:14:39.945Z,28.60
2018-04-06T11:17:08.180Z,27.90
2018-04-06T11:19:36.622Z,27.80
2018-04-06T11:22:07.153Z,27.70
2018-04-06T11:24:35.410Z,27.60
2018-04-06T11:27:04.466Z,27.30
2018-04-06T11:29:32.743Z,27.10
2018-04-06T11:32:01.122Z,26.90
2018-04-06T11:34:29.408Z,26.50
2018-04-06T11:36:58.632Z,26.50
2018-04-06T11:39:26.894Z,26.70
2018-04-06T11:41:55.166Z,26.70
2018-04-06T11:44:23.414Z,26.50
2018-04-06T11:46:53.476Z,26.30
2018-04-06T11:49:21.725Z,26.20
2018-04-06T11:51:49.993Z,25.70
2018-04-06T11:54:19.102Z,25.70
2018-04-06T11:56:48.932Z,25.70
2018-04-06T11:59:17.199Z,25.80
2018-04-06T12:01:45.471Z,25.70
2018-04-06T12:04:13.821Z,25.90
2018-04-06T12:06:42.032Z,25.80
2018-04-06T12:09:11.770Z,25.30
2018-04-06T12:11:41.015Z,25.30
2018-04-06T12:14:09.228Z,25.70
2018-04-06T12:16:38.289Z,26.00
2018-04-06T12:19:07.426Z,25.70
2018-04-06T12:21:35.690Z,25.40
2018-04-06T12:24:04.715Z,24.70
2018-04-06T12:26:34.269Z,24.80
2018-04-06T12:29:02.532Z,24.60
2018-04-06T12:31:30.804Z,24.30
2018-04-06T12:33:59.043Z,24.00
2018-04-06T12:36:28.097Z,24.00
2018-04-06T12:38:56.460Z,23.90
2018-04-06T12:41:24.694Z,24.00
2018-04-06T12:43:52.936Z,23.40
2018-04-06T12:46:22.073Z,23.10
2018-04-06T12:48:51.187Z,23.40
2018-04-06T12:51:19.396Z,23.10
2018-04-06T12:53:47.875Z,23.20
2018-04-06T12:56:17.144Z,22.70
2018-04-06T12:58:45.413Z,22.90
2018-04-06T13:01:13.641Z,22.70
2018-04-06T13:03:41.969Z,22.40
2018-04-06T13:06:11.126Z,21.90
2018-04-06T13:08:39.387Z,22.00
2018-04-06T13:11:07.691Z,22.10
2018-04-06T13:13:35.958Z,22.10
2018-04-06T13:16:05.100Z,21.80
2018-04-06T13:18:33.351Z,21.90
2018-04-06T13:21:01.602Z,21.60
2018-04-06T13:23:30.673Z,21.60
2018-04-06T13:25:58.983Z,21.60
2018-04-06T13:28:28.065Z,21.00
2018-04-06T13:30:56.302Z,21.00
2018-04-06T13:33:24.586Z,21.10
2018-04-06T13:35:52.855Z,21.10
2018-04-06T13:38:21.878Z,21.10
2018-04-06T13:40:50.174Z,20.90
2018-04-06T13:43:19.237Z,21.10
2018-04-06T13:45:47.625Z,21.10
2018-04-06T13:48:15.874Z,20.70
2018-04-06T13:50:44.117Z,20.80
2018-04-06T13:53:12.428Z,20.90
2018-04-06T13:55:40.679Z,21.00
2018-04-06T13:58:08.952Z,20.90
2018-04-06T14:00:37.222Z,20.80
2018-04-06T14:03:05.573Z,21.00
2018-04-06T14:05:33.856Z,20.70
2018-04-06T14:08:03.895Z,20.90
2018-04-06T14:10:32.813Z,20.90
2018-04-06T14:13:01.280Z,20.80
2018-04-06T14:15:29.578Z,20.60
2018-04-06T14:17:57.842Z,19.90
2018-04-06T14:20:26.094Z,20.00
2018-04-06T14:22:54.391Z,20.10
2018-04-06T14:25:22.625Z,19.90
2018-04-06T14:27:51.668Z,19.80
2018-04-06T14:30:19.982Z,19.80
2018-04-06T14:32:48.211Z,19.40
2018-04-06T14:35:16.499Z,19.40
2018-04-06T14:37:44.742Z,19.60
2018-04-06T14:40:13.065Z,20.10
2018-04-06T14:42:41.341Z,19.60
2018-04-06T14:45:11.064Z,19.50
2018-04-06T14:47:39.346Z,19.60
2018-04-06T14:50:07.685Z,19.50
2018-04-06T14:52:37.370Z,19.60
2018-04-06T14:55:05.587Z,19.40
2018-04-06T14:57:34.629Z,19.50
2018-04-06T15:00:02.912Z,19.60
2018-04-06T15:02:32.448Z,19.60
2018-04-06T15:05:00.883Z,19.50
2018-04-06T15:07:29.160Z,19.60
2018-04-06T15:09:57.395Z,19.50
2018-04-06T15:12:25.724Z,19.60
2018-04-06T15:14:54.046Z,20.00
2018-04-06T15:17:22.792Z,19.60
2018-04-06T15:19:51.121Z,19.70
2018-04-06T15:22:19.363Z,19.70
2018-04-06T15:24:47.637Z,19.80
2018-04-06T15:27:15.900Z,19.80
2018-04-06T15:29:45.174Z,19.80
2018-04-06T15:32:13.496Z,19.40
2018-04-06T15:34:42.490Z,19.60
2018-04-06T15:37:10.970Z,19.80
2018-04-06T15:39:40.137Z,19.50
2018-04-06T15:42:09.345Z,19.60
2018-04-06T15:44:38.874Z,19.60
2018-04-06T15:47:08.770Z,19.60
2018-04-06T15:49:37.813Z,19.60
2018-04-06T15:52:06.795Z,19.60
2018-04-06T15:54:35.861Z,19.50
2018-04-06T15:57:04.894Z,19.60
2018-04-06T15:59:33.123Z,19.30
2018-04-06T16:02:02.367Z,19.60
2018-04-06T16:04:31.397Z,19.30
2018-04-06T16:06:59.813Z,19.30
2018-04-06T16:09:32.086Z,19.50
2018-04-06T16:12:00.408Z,19.40
2018-04-06T16:14:28.657Z,19.40
2018-04-06T16:16:56.918Z,19.60
2018-04-06T16:19:25.519Z,19.30
2018-04-06T16:21:53.774Z,19.40
2018-04-06T16:24:22.044Z,19.60
2018-04-06T16:26:50.365Z,19.60
2018-04-06T16:29:18.755Z,19.60
2018-04-06T16:31:47.088Z,19.60
2018-04-06T16:34:15.315Z,19.60
2018-04-06T16:36:43.558Z,19.50
2018-04-06T16:39:11.915Z,19.60
2018-04-06T16:41:40.918Z,19.40
2018-04-06T16:44:10.915Z,19.30
2018-04-06T16:46:40.425Z,19.50
2018-04-06T16:49:09.075Z,19.50
2018-04-06T16:51:38.095Z,19.50
2018-04-06T16:54:07.110Z,19.50
2018-04-06T16:56:36.195Z,19.50
2018-04-06T16:59:05.250Z,19.40
2018-04-06T17:01:33.617Z,19.40
2018-04-06T17:04:01.906Z,19.40
2018-04-06T17:06:30.170Z,19.30
2018-04-06T17:08:58.449Z,19.40
2018-04-06T17:11:26.840Z,19.30
2018-04-06T17:13:55.104Z,19.20
2018-04-06T17:16:24.227Z,19.10
2018-04-06T17:18:52.490Z,19.20
2018-04-06T17:21:20.757Z,19.30
2018-04-06T17:23:49.027Z,19.40
2018-04-06T17:26:17.292Z,19.20
2018-04-06T17:28:47.097Z,19.30
2018-04-06T17:31:15.376Z,19.10
2018-04-06T17:33:43.612Z,19.00
2018-04-06T17:36:11.904Z,19.00
2018-04-06T17:38:40.330Z,18.90
2018-04-06T17:41:08.629Z,19.00
2018-04-06T17:43:37.658Z,19.50
2018-04-06T17:46:05.912Z,19.30
2018-04-06T17:48:34.351Z,19.10
2018-04-06T17:51:03.040Z,20.00
2018-04-06T17:53:31.454Z,19.50
2018-04-06T17:56:00.418Z,19.40
2018-04-06T17:58:28.743Z,19.50
2018-04-06T18:00:57.199Z,19.70
2018-04-06T18:03:25.554Z,19.60
2018-04-06T18:05:53.840Z,19.70
2018-04-06T18:08:24.152Z,19.90
2018-04-06T18:10:52.586Z,19.80
2018-04-06T18:13:20.806Z,19.90
2018-04-06T18:15:49.088Z,19.80
2018-04-06T18:18:17.373Z,19.80
2018-04-06T18:20:46.465Z,20.00
2018-04-06T18:23:14.731Z,20.00
2018-04-06T18:25:43.922Z,19.90
2018-04-06T18:28:13.008Z,20.10
2018-04-06T18:30:41.242Z,20.00
2018-04-06T18:33:09.663Z,20.20
2018-04-06T18:35:38.045Z,20.10
2018-04-06T18:38:06.267Z,20.00
2018-04-06T18:40:36.199Z,20.10
2018-04-06T18:43:06.535Z,20.20
2018-04-06T18:45:35.276Z,20.10
2018-04-06T18:48:04.317Z,20.10
2018-04-06T18:50:32.574Z,20.10
2018-04-06T18:53:00.870Z,20.20
2018-04-06T18:55:29.162Z,20.40
2018-04-06T18:57:57.581Z,20.50
2018-04-06T19:00:25.841Z,20.80
2018-04-06T19:02:54.145Z,20.70
2018-04-06T19:05:22.474Z,20.80
2018-04-06T19:07:51.687Z,20.80
2018-04-06T19:10:19.988Z,20.90
2018-04-06T19:12:49.267Z,20.90
2018-04-06T19:15:18.522Z,21.00
2018-04-06T19:17:46.898Z,21.10
2018-04-06T19:20:15.158Z,21.10
2018-04-06T19:22:43.589Z,21.10
2018-04-06T19:25:13.214Z,21.50
2018-04-06T19:30:16.172Z,21.60
2018-04-06T19:32:44.487Z,21.70
2018-04-06T19:35:13.579Z,22.00
2018-04-06T19:37:41.824Z,21.90
2018-04-06T19:40:10.091Z,21.90
2018-04-06T19:42:38.401Z,22.00
2018-04-06T19:45:06.745Z,21.70
2018-04-06T19:47:36.057Z,21.90
2018-04-06T19:50:04.473Z,22.10
2018-04-06T19:52:32.748Z,22.40
2018-04-06T19:55:01.002Z,22.40
2018-04-06T19:57:29.281Z,22.30
2018-04-06T19:59:57.606Z,22.70
2018-04-06T20:02:26.656Z,22.80
2018-04-06T20:04:54.900Z,22.90
2018-04-06T20:07:23.964Z,23.20
2018-04-06T20:09:52.256Z,23.10
2018-04-06T20:12:20.511Z,23.40
2018-04-06T20:14:48.806Z,23.50
2018-04-06T20:17:18.550Z,23.80
2018-04-06T20:19:47.571Z,24.00
2018-04-06T20:22:16.921Z,23.90
2018-04-06T20:24:45.169Z,24.00
2018-04-06T20:27:13.430Z,24.00
2018-04-06T20:29:41.776Z,24.20
2018-04-06T20:32:10.852Z,24.00
2018-04-06T20:37:13.805Z,24.90
2018-04-06T20:39:42.883Z,25.00
2018-04-06T20:42:11.130Z,25.00
2018-04-06T20:44:39.434Z,25.10
2018-04-06T20:47:07.770Z,25.10
2018-04-06T20:49:36.108Z,25.20
2018-04-06T20:52:04.467Z,25.10
2018-04-06T20:54:32.873Z,25.10
2018-04-06T20:57:01.099Z,25.10
2018-04-06T20:59:29.386Z,25.10
2018-04-06T21:01:57.664Z,25.10
2018-04-06T21:04:25.986Z,25.10
2018-04-06T21:06:55.064Z,25.30
2018-04-06T21:09:23.416Z,25.50
2018-04-06T21:11:51.672Z,25.60
2018-04-06T21:14:20.824Z,26.30
2018-04-06T21:16:49.054Z,25.70
2018-04-06T21:19:18.080Z,26.20
2018-04-06T21:21:46.710Z,25.90
2018-04-06T21:24:15.048Z,26.10
2018-04-06T21:26:44.073Z,26.40
2018-04-06T21:29:12.331Z,26.30
2018-04-06T21:31:40.607Z,26.50
2018-04-06T21:34:08.899Z,26.40
2018-04-06T21:36:37.225Z,26.70
2018-04-06T21:39:06.289Z,26.60
2018-04-06T21:41:34.557Z,26.80
2018-04-06T21:44:02.797Z,27.00
2018-04-06T21:46:31.861Z,26.80
2018-04-06T21:49:00.185Z,26.90
2018-04-06T21:51:30.166Z,27.10
2018-04-06T21:53:58.444Z,27.30
2018-04-06T21:56:27.414Z,27.50
2018-04-06T21:58:55.673Z,27.10
2018-04-06T22:01:24.726Z,27.30
2018-04-06T22:03:53.007Z,27.30
2018-04-06T22:06:22.099Z,27.60
2018-04-06T22:08:50.360Z,27.60
2018-04-06T22:11:18.621Z,27.60
2018-04-06T22:13:47.617Z,27.80
2018-04-06T22:16:15.881Z,27.90
2018-04-06T22:18:44.914Z,27.90
2018-04-06T22:21:13.176Z,28.00
2018-04-06T22:23:41.504Z,27.80
2018-04-06T22:26:09.763Z,28.00
2018-04-06T22:28:38.065Z,28.10
2018-04-06T22:31:06.373Z,28.10
2018-04-06T22:33:34.595Z,28.20
2018-04-06T22:36:03.014Z,28.20
2018-04-06T22:38:31.342Z,28.60
2018-04-06T22:41:00.382Z,28.10
2018-04-06T22:43:28.642Z,28.00
2018-04-06T22:45:56.866Z,28.20
2018-04-06T22:48:25.913Z,28.10
2018-04-06T22:50:54.344Z,28.30
2018-04-06T22:53:22.563Z,28.30
2018-04-06T22:55:50.806Z,28.40
2018-04-06T22:58:20.704Z,28.50
2018-04-06T23:00:48.971Z,28.30
2018-04-06T23:03:17.200Z,28.40
2018-04-06T23:05:47.073Z,28.60
2018-04-06T23:08:15.342Z,28.60
2018-04-06T23:10:43.564Z,28.30
2018-04-06T23:13:11.906Z,28.20
2018-04-06T23:15:40.157Z,28.40
2018-04-06T23:18:09.182Z,28.30
2018-04-06T23:20:37.500Z,28.40
2018-04-06T23:23:05.753Z,28.50
2018-04-06T23:25:34.020Z,28.40
2018-04-06T23:28:02.258Z,28.40
2018-04-06T23:30:32.087Z,28.40
2018-04-06T23:33:01.153Z,29.00
2018-04-06T23:35:30.632Z,28.50
2018-04-06T23:37:58.961Z,28.40
2018-04-06T23:40:27.991Z,28.40
2018-04-06T23:42:57.003Z,28.40
2018-04-06T23:45:25.281Z,28.50
2018-04-06T23:47:53.598Z,28.60
2018-04-06T23:50:21.883Z,28.70
2018-04-06T23:52:50.151Z,28.40
2018-04-06T23:55:18.396Z,28.50
2018-04-06T23:57:46.695Z,28.70
